createdAt,value
2022-10-11T00:02:14.688Z,101063.59
2022-10-11T00:04:42.526Z,101063.81
2022-10-11T00:07:10.748Z,101029.38
2022-10-11T00:09:38.606Z,101073.41
2022-10-11T00:12:06.970Z,100948.88
2022-10-11T00:14:35.029Z,101071.72
2022-10-11T00:17:02.814Z,101085.91
2022-10-11T00:19:32.001Z,101076.84
2022-10-11T00:21:59.782Z,101081.97
2022-10-11T00:24:27.640Z,101089.31
2022-10-11T00:26:55.433Z,101095.44
2022-10-11T00:29:23.696Z,101072.69
2022-10-11T00:31:51.537Z,101100.97
2022-10-11T00:34:19.409Z,101094.03
2022-10-11T00:36:48.624Z,101076.56
2022-10-11T00:39:16.493Z,101107.34
2022-10-11T00:41:44.289Z,101088.91
2022-10-11T00:44:15.947Z,100962.97
2022-10-11T00:46:46.293Z,100990.38
2022-10-11T00:49:19.538Z,101108.56
2022-10-11T00:51:53.521Z,101106.91
2022-10-11T00:54:25.282Z,101105.19
2022-10-11T00:56:58.553Z,101057.69
2022-10-11T00:59:30.627Z,100971.97
2022-10-11T01:01:58.756Z,101106.97
2022-10-11T01:04:26.564Z,101098.09
2022-10-11T01:06:56.024Z,101107.06
2022-10-11T01:09:23.892Z,101109.09
2022-10-11T01:11:54.902Z,101108.91
2022-10-11T01:14:43.927Z,101107.91
2022-10-11T01:17:22.716Z,101106.38
2022-10-11T01:20:28.066Z,101115.94
2022-10-11T01:23:28.887Z,101105.63
2022-10-11T01:26:16.861Z,101090.66
2022-10-11T01:28:50.577Z,101117.78
2022-10-11T01:31:26.465Z,101124.09
2022-10-11T01:34:00.771Z,101119.53
2022-10-11T01:36:32.844Z,101132.03
2022-10-11T01:39:05.387Z,101131.28
2022-10-11T01:41:41.003Z,101117.97
2022-10-11T01:44:11.488Z,101135.69
2022-10-11T01:46:41.830Z,101096.97
2022-10-11T01:49:09.575Z,101131.34
2022-10-11T01:51:42.986Z,101076.09
2022-10-11T01:54:44.363Z,101140.47
2022-10-11T01:57:37.226Z,101148.44
2022-10-11T02:00:11.306Z,101097.53
2022-10-11T02:02:53.609Z,101150.19
2022-10-11T02:05:29.537Z,101146.69
2022-10-11T02:08:03.100Z,101132.63
2022-10-11T02:10:36.975Z,101148.53
2022-10-11T02:13:10.303Z,101146.78
2022-10-11T02:15:41.640Z,101148.38
2022-10-11T02:18:16.643Z,101148.44
2022-10-11T02:20:46.542Z,101146.56
2022-10-11T02:23:18.770Z,101144.75
2022-10-11T02:25:48.358Z,101146.78
2022-10-11T02:28:19.804Z,101143.09
2022-10-11T02:30:50.563Z,101144.06
2022-10-11T02:33:24.961Z,101115.06
2022-10-11T02:35:59.835Z,101152.13
2022-10-11T02:38:35.159Z,101087.69
2022-10-11T02:41:12.333Z,101149.50
2022-10-11T02:43:44.613Z,101147.56
2022-10-11T02:46:17.492Z,101161.00
2022-10-11T02:48:46.956Z,101155.69
2022-10-11T02:51:15.538Z,101098.41
2022-10-11T02:53:43.368Z,101136.41
2022-10-11T02:56:11.250Z,101156.75
2022-10-11T02:58:39.118Z,101155.06
2022-10-11T03:01:07.311Z,101161.19
2022-10-11T03:03:35.248Z,101171.81
2022-10-11T03:06:05.744Z,101163.06
2022-10-11T03:08:33.938Z,101173.75
2022-10-11T03:11:01.867Z,101147.31
2022-10-11T03:13:29.724Z,101172.94
2022-10-11T03:16:03.398Z,101187.13
2022-10-11T03:18:31.815Z,101192.44
2022-10-11T03:20:59.673Z,101173.91
2022-10-11T03:23:28.881Z,101182.72
2022-10-11T03:25:56.669Z,101189.81
2022-10-11T03:28:24.545Z,101200.38
2022-10-11T03:30:52.641Z,101203.03
2022-10-11T03:33:21.441Z,101197.69
2022-10-11T03:35:50.164Z,101207.47
2022-10-11T03:38:20.176Z,101196.88
2022-10-11T03:40:49.559Z,101212.78
2022-10-11T03:43:17.368Z,101097.94
2022-10-11T03:45:45.223Z,101209.25
2022-10-11T03:48:13.731Z,101215.47
2022-10-11T03:50:41.725Z,101224.38
2022-10-11T03:53:10.056Z,101138.59
2022-10-11T03:55:40.109Z,101203.09
2022-10-11T03:58:09.570Z,101203.13
2022-10-11T04:00:38.002Z,101228.75
2022-10-11T04:03:05.883Z,101212.81
2022-10-11T04:05:33.820Z,101230.38
2022-10-11T04:08:01.694Z,101239.25
2022-10-11T04:10:31.027Z,101237.44
2022-10-11T04:12:58.896Z,101229.53
2022-10-11T04:15:28.136Z,101241.00
2022-10-11T04:17:56.045Z,101183.56
2022-10-11T04:20:24.142Z,101244.63
2022-10-11T04:22:51.992Z,101241.97
2022-10-11T04:25:19.896Z,101230.53
2022-10-11T04:27:47.877Z,101246.50
2022-10-11T04:30:16.160Z,101243.91
2022-10-11T04:32:46.220Z,101247.47
2022-10-11T04:35:14.622Z,101253.66
2022-10-11T04:37:42.499Z,101207.72
2022-10-11T04:40:11.693Z,101260.81
2022-10-11T04:42:39.551Z,101244.91
2022-10-11T04:45:09.397Z,101229.88
2022-10-11T04:47:37.273Z,101272.41
2022-10-11T04:50:07.512Z,101273.25
2022-10-11T04:52:35.383Z,101275.09
2022-10-11T04:55:03.201Z,101275.13
2022-10-11T04:57:31.064Z,101280.41
2022-10-11T04:59:58.938Z,101259.19
2022-10-11T05:02:27.176Z,101268.91
2022-10-11T05:04:55.119Z,101284.84
2022-10-11T05:07:24.421Z,101287.53
2022-10-11T05:09:52.504Z,101288.38
2022-10-11T05:12:20.362Z,101289.25
2022-10-11T05:14:48.203Z,101289.28
2022-10-11T05:17:16.113Z,101289.28
2022-10-11T05:19:43.967Z,101286.63
2022-10-11T05:22:11.828Z,101292.84
2022-10-11T05:24:41.071Z,101290.22
2022-10-11T05:27:09.059Z,101298.19
2022-10-11T05:29:36.952Z,101299.94
2022-10-11T05:32:05.016Z,101282.22
2022-10-11T05:34:32.841Z,101184.00
2022-10-11T05:37:00.623Z,101300.84
2022-10-11T05:39:28.453Z,101307.00
2022-10-11T05:41:58.006Z,101308.75
2022-10-11T05:44:26.034Z,101219.41
2022-10-11T05:46:53.973Z,101322.91
2022-10-11T05:49:21.819Z,101305.16
2022-10-11T05:51:49.640Z,101323.78
2022-10-11T05:54:17.550Z,101314.09
2022-10-11T05:56:45.388Z,101322.88
2022-10-11T05:59:14.676Z,101332.69
2022-10-11T06:01:42.522Z,101329.97
2022-10-11T06:04:11.703Z,101341.50
2022-10-11T06:06:39.510Z,101313.16
2022-10-11T06:09:07.309Z,101339.66
2022-10-11T06:11:35.192Z,101325.53
2022-10-11T06:14:03.045Z,101321.06
2022-10-11T06:16:32.384Z,101344.09
2022-10-11T06:19:00.251Z,101273.28
2022-10-11T06:21:28.166Z,101331.69
2022-10-11T06:24:01.189Z,101349.44
2022-10-11T06:26:30.350Z,101344.13
2022-10-11T06:28:58.978Z,101356.53
2022-10-11T06:31:27.210Z,101353.81
2022-10-11T06:33:56.429Z,101367.16
2022-10-11T06:36:24.380Z,101292.72
2022-10-11T06:38:52.928Z,101373.34
2022-10-11T06:41:23.650Z,101375.06
2022-10-11T06:43:52.199Z,101357.38
2022-10-11T06:46:21.153Z,101340.53
2022-10-11T06:48:49.826Z,101349.38
2022-10-11T06:51:21.596Z,101369.69
2022-10-11T06:53:50.148Z,101370.56
2022-10-11T06:56:18.413Z,101389.06
2022-10-11T06:58:46.381Z,101259.88
2022-10-11T07:01:19.064Z,101373.97
2022-10-11T07:03:47.531Z,101373.03
2022-10-11T07:06:17.822Z,101383.63
2022-10-11T07:08:46.868Z,101396.06
2022-10-11T07:11:17.000Z,101383.63
2022-10-11T07:13:49.401Z,101391.56
2022-10-11T07:16:17.342Z,101405.75
2022-10-11T07:18:45.381Z,101405.75
2022-10-11T07:21:15.708Z,101407.41
2022-10-11T07:23:43.648Z,101409.09
2022-10-11T07:26:13.315Z,101386.13
2022-10-11T07:28:42.309Z,101420.56
2022-10-11T07:31:13.613Z,101413.28
2022-10-11T07:33:41.631Z,101415.97
2022-10-11T07:36:10.982Z,101424.69
2022-10-11T07:38:41.428Z,101434.28
2022-10-11T07:41:10.135Z,101406.97
2022-10-11T07:43:40.135Z,101431.84
2022-10-11T07:46:09.167Z,101436.06
2022-10-11T07:48:38.083Z,101432.44
2022-10-11T07:51:08.745Z,101438.66
2022-10-11T07:53:41.026Z,101428.59
2022-10-11T07:56:09.685Z,101390.31
2022-10-11T07:58:39.064Z,101436.09
2022-10-11T08:01:07.643Z,101439.72
2022-10-11T08:03:36.038Z,101428.16
2022-10-11T08:06:06.224Z,101444.81
2022-10-11T08:08:34.719Z,101441.44
2022-10-11T08:11:02.667Z,101450.56
2022-10-11T08:13:30.480Z,101436.19
2022-10-11T08:16:00.338Z,101447.25
2022-10-11T08:18:28.293Z,101448.88
2022-10-11T08:20:56.171Z,101408.19
2022-10-11T08:23:24.035Z,101395.81
2022-10-11T08:25:58.174Z,101453.97
2022-10-11T08:28:27.211Z,101457.25
2022-10-11T08:30:56.094Z,101457.84
2022-10-11T08:33:26.835Z,101452.69
2022-10-11T08:35:57.111Z,101426.75
2022-10-11T08:38:25.050Z,101448.69
2022-10-11T08:40:56.105Z,101362.69
2022-10-11T08:43:39.203Z,101436.75
2022-10-11T08:46:09.709Z,101396.72
2022-10-11T08:48:43.159Z,101446.09
2022-10-11T08:51:17.413Z,101449.50
2022-10-11T08:53:50.423Z,101449.72
2022-10-11T08:56:20.135Z,101452.44
2022-10-11T08:58:52.984Z,101424.00
2022-10-11T09:01:24.760Z,101431.78
2022-10-11T09:03:54.324Z,101455.25
2022-10-11T09:06:36.406Z,101437.13
2022-10-11T09:09:30.085Z,101453.69
2022-10-11T09:12:13.803Z,101458.38
2022-10-11T09:15:02.048Z,101421.94
2022-10-11T09:17:42.957Z,101461.69
2022-10-11T09:20:32.111Z,101446.41
2022-10-11T09:23:05.872Z,101462.50
2022-10-11T09:25:36.435Z,101464.34
2022-10-11T09:28:18.883Z,101439.63
2022-10-11T09:30:53.782Z,101452.94
2022-10-11T09:33:32.450Z,101466.53
2022-10-11T09:36:04.142Z,101466.25
2022-10-11T09:38:41.241Z,101462.88
2022-10-11T09:41:18.963Z,101464.22
2022-10-11T09:43:48.688Z,101459.03
2022-10-11T09:46:23.724Z,101455.78
2022-10-11T09:48:54.696Z,101367.47
2022-10-11T09:51:28.474Z,101470.84
2022-10-11T09:53:59.810Z,101348.91
2022-10-11T09:56:29.950Z,101460.03
2022-10-11T09:59:09.373Z,101460.06
2022-10-11T10:01:37.803Z,101458.31
2022-10-11T10:04:09.509Z,101462.41
2022-10-11T10:06:39.686Z,101458.63
2022-10-11T10:09:27.950Z,101464.16
2022-10-11T10:11:56.474Z,101461.91
2022-10-11T10:14:28.440Z,101421.25
2022-10-11T10:17:05.126Z,101468.94
2022-10-11T10:19:44.741Z,101464.44
2022-10-11T10:22:20.548Z,101403.00
2022-10-11T10:24:51.304Z,101462.03
2022-10-11T10:27:22.524Z,101449.81
2022-10-11T10:30:16.006Z,101461.81
2022-10-11T10:32:52.498Z,101454.50
2022-10-11T10:35:30.318Z,101442.69
2022-10-11T10:38:07.969Z,101457.09
2022-10-11T10:40:42.104Z,101441.34
2022-10-11T10:43:16.467Z,101462.97
2022-10-11T10:46:04.009Z,101460.66
2022-10-11T10:49:18.736Z,101462.00
2022-10-11T10:51:40.659Z,101454.03
2022-10-11T10:54:20.677Z,101461.56
2022-10-11T10:56:53.992Z,101457.81
2022-10-11T10:59:47.150Z,101447.97
2022-10-11T11:02:39.575Z,101457.50
2022-10-11T11:05:18.770Z,101424.84
2022-10-11T11:07:51.264Z,101456.00
2022-10-11T11:10:24.203Z,101397.28
2022-10-11T11:13:04.289Z,101453.66
2022-10-11T11:15:40.029Z,101457.38
2022-10-11T11:18:28.582Z,101458.69
2022-10-11T11:21:13.909Z,101456.38
2022-10-11T11:23:49.125Z,101457.47
2022-10-11T11:26:26.365Z,101457.38
2022-10-11T11:29:12.414Z,101455.53
2022-10-11T11:32:01.624Z,101457.47
2022-10-11T11:34:36.994Z,101371.56
2022-10-11T11:37:08.026Z,101425.19
2022-10-11T11:39:43.475Z,101461.19
2022-10-11T11:42:17.401Z,101438.97
2022-10-11T11:44:47.967Z,101427.63
2022-10-11T11:47:23.672Z,101456.69
2022-10-11T11:49:58.379Z,101416.44
2022-10-11T11:52:29.614Z,101425.16
2022-10-11T11:55:10.407Z,101449.72
2022-10-11T11:57:53.305Z,101431.19
2022-10-11T12:00:23.267Z,101441.19
2022-10-11T12:02:54.425Z,101442.72
2022-10-11T12:05:25.456Z,101424.50
2022-10-11T12:07:58.431Z,101441.06
2022-10-11T12:10:31.249Z,101427.28
2022-10-11T12:13:18.903Z,101444.00
2022-10-11T12:16:00.127Z,101437.50
2022-10-11T12:18:29.093Z,101436.47
2022-10-11T12:21:06.888Z,101427.66
2022-10-11T12:23:44.899Z,101441.22
2022-10-11T12:26:33.491Z,101424.34
2022-10-11T12:29:34.630Z,101434.22
2022-10-11T12:32:48.075Z,101431.50
2022-10-11T12:35:49.621Z,101432.22
2022-10-11T12:38:21.714Z,101427.88
2022-10-11T12:40:51.230Z,101398.06
2022-10-11T12:43:37.620Z,101423.47
2022-10-11T12:46:53.788Z,101419.06
2022-10-11T12:49:29.199Z,101403.31
2022-10-11T12:52:01.920Z,101413.56
2022-10-11T12:55:00.388Z,101406.19
2022-10-11T12:57:51.823Z,101411.19
2022-10-11T13:00:23.762Z,101392.34
2022-10-11T13:02:51.684Z,101409.13
2022-10-11T13:05:26.307Z,101408.19
2022-10-11T13:07:58.136Z,101413.72
2022-10-11T13:10:30.295Z,101406.53
2022-10-11T13:13:04.188Z,101400.66
2022-10-11T13:15:32.618Z,101393.41
2022-10-11T13:18:01.584Z,101406.75
2022-10-11T13:20:37.490Z,101384.22
2022-10-11T13:23:22.900Z,101369.03
2022-10-11T13:25:51.299Z,101392.88
2022-10-11T13:28:20.343Z,101292.81
2022-10-11T13:30:51.425Z,101402.63
2022-10-11T13:33:22.384Z,101402.69
2022-10-11T13:35:53.395Z,101398.13
2022-10-11T13:38:27.286Z,101386.31
2022-10-11T13:40:56.452Z,101390.97
2022-10-11T13:43:28.157Z,101394.66
2022-10-11T13:45:58.243Z,101393.81
2022-10-11T13:48:30.887Z,101395.53
2022-10-11T13:51:09.167Z,101394.28
2022-10-11T13:53:36.993Z,101389.00
2022-10-11T13:56:08.476Z,101391.56
2022-10-11T13:58:40.459Z,101365.50
2022-10-11T14:01:19.096Z,101389.44
2022-10-11T14:03:50.222Z,101393.31
2022-10-11T14:06:19.547Z,101376.03
2022-10-11T14:08:51.387Z,101378.66
2022-10-11T14:11:34.884Z,101336.88
2022-10-11T14:14:29.208Z,101384.91
2022-10-11T14:16:58.344Z,101385.75
2022-10-11T14:19:26.367Z,101392.84
2022-10-11T14:21:55.595Z,101388.53
2022-10-11T14:24:24.414Z,101394.44
2022-10-11T14:26:54.543Z,101380.53
2022-10-11T14:29:26.559Z,101361.53
2022-10-11T14:32:03.994Z,101381.63
2022-10-11T14:34:32.836Z,101358.25
2022-10-11T14:37:02.282Z,101377.13
2022-10-11T14:39:32.868Z,101367.78
2022-10-11T14:42:00.783Z,101386.66
2022-10-11T14:44:28.631Z,101383.63
2022-10-11T14:46:56.477Z,101379.44
2022-10-11T14:49:26.939Z,101357.69
2022-10-11T14:51:56.754Z,101378.25
2022-10-11T14:54:27.700Z,101387.16
2022-10-11T14:56:58.086Z,101396.31
2022-10-11T14:59:28.908Z,101384.19
2022-10-11T15:01:56.918Z,101381.63
2022-10-11T15:04:27.251Z,101388.63
2022-10-11T15:06:55.777Z,101381.72
2022-10-11T15:09:30.854Z,101380.31
2022-10-11T15:11:59.243Z,101379.44
2022-10-11T15:14:27.449Z,101378.22
2022-10-11T15:16:56.231Z,101375.41
2022-10-11T15:19:25.913Z,101366.44
2022-10-11T15:21:54.277Z,101363.59
2022-10-11T15:24:22.271Z,101353.97
2022-10-11T15:26:51.501Z,101371.50
2022-10-11T15:29:21.849Z,101377.25
2022-10-11T15:31:50.260Z,101366.72
2022-10-11T15:34:18.686Z,101373.22
2022-10-11T15:36:47.100Z,101338.50
2022-10-11T15:39:25.473Z,101373.19
2022-10-11T15:41:54.881Z,101375.94
2022-10-11T15:44:22.758Z,101348.72
2022-10-11T15:46:50.929Z,101373.28
2022-10-11T15:49:19.655Z,101368.88
2022-10-11T15:51:47.619Z,101363.88
2022-10-11T15:54:15.548Z,101364.13
2022-10-11T15:56:43.866Z,101331.94
2022-10-11T15:59:13.056Z,101374.78
2022-10-11T16:01:40.997Z,101364.16
2022-10-11T16:04:09.105Z,101360.97
2022-10-11T16:06:37.040Z,101364.66
2022-10-11T16:09:05.190Z,101375.50
2022-10-11T16:11:33.074Z,101370.56
2022-10-11T16:14:00.930Z,101382.94
2022-10-11T16:16:30.445Z,101392.38
2022-10-11T16:18:58.402Z,101393.63
2022-10-11T16:21:26.336Z,101393.78
2022-10-11T16:23:54.577Z,101386.78
2022-10-11T16:26:22.538Z,101286.94
2022-10-11T16:28:50.601Z,101389.22
2022-10-11T16:31:20.848Z,101387.31
2022-10-11T16:33:50.540Z,101372.75
2022-10-11T16:36:35.968Z,101391.31
2022-10-11T16:39:08.092Z,101394.22
2022-10-11T16:41:36.411Z,101395.59
2022-10-11T16:44:04.755Z,101401.28
2022-10-11T16:46:34.088Z,101398.97
2022-10-11T16:49:03.884Z,101389.63
2022-10-11T16:51:31.752Z,101399.66
2022-10-11T16:53:59.784Z,101403.50
2022-10-11T16:56:28.156Z,101387.09
2022-10-11T16:58:56.613Z,101388.69
2022-10-11T17:01:24.884Z,101410.75
2022-10-11T17:03:53.717Z,101408.22
2022-10-11T17:06:24.515Z,101395.06
2022-10-11T17:08:52.369Z,101404.88
2022-10-11T17:11:21.628Z,101410.28
2022-10-11T17:13:50.743Z,101286.69
2022-10-11T17:16:19.167Z,101406.94
2022-10-11T17:18:47.385Z,101406.06
2022-10-11T17:21:17.327Z,101408.75
2022-10-11T17:23:46.710Z,101400.91
2022-10-11T17:26:18.039Z,101389.47
2022-10-11T17:28:46.555Z,101409.09
2022-10-11T17:31:14.447Z,101411.97
2022-10-11T17:33:42.376Z,101405.03
2022-10-11T17:36:21.710Z,101406.94
2022-10-11T17:38:52.561Z,101410.63
2022-10-11T17:41:21.275Z,101403.59
2022-10-11T17:43:49.409Z,101414.28
2022-10-11T17:46:18.545Z,101409.97
2022-10-11T17:48:46.463Z,101411.84
2022-10-11T17:51:16.654Z,101406.66
2022-10-11T17:53:45.346Z,101405.75
2022-10-11T17:56:18.725Z,101414.69
2022-10-11T17:58:47.658Z,101413.06
2022-10-11T18:01:18.063Z,101304.38
2022-10-11T18:03:52.484Z,101415.72
2022-10-11T18:06:21.140Z,101391.84
2022-10-11T18:08:49.029Z,101409.63
2022-10-11T18:11:20.879Z,101384.06
2022-10-11T18:13:50.335Z,101386.78
2022-10-11T18:16:20.691Z,101410.81
2022-10-11T18:18:48.849Z,101412.72
2022-10-11T18:21:18.440Z,101347.34
2022-10-11T18:23:47.005Z,101417.31
2022-10-11T18:26:16.960Z,101417.41
2022-10-11T18:28:46.747Z,101376.69
2022-10-11T18:31:17.753Z,101413.88
2022-10-11T18:33:46.407Z,101417.50
2022-10-11T18:36:16.274Z,101412.19
2022-10-11T18:38:46.700Z,101412.28
2022-10-11T18:41:18.155Z,101412.34
2022-10-11T18:43:51.305Z,101410.53
2022-10-11T18:46:20.290Z,101411.44
2022-10-11T18:48:50.796Z,101403.34
2022-10-11T18:51:20.099Z,101402.50
2022-10-11T18:53:49.026Z,101397.22
2022-10-11T18:56:20.567Z,101403.56
2022-10-11T18:58:50.990Z,101406.22
2022-10-11T19:01:19.940Z,101399.16
2022-10-11T19:03:49.472Z,101357.59
2022-10-11T19:06:20.881Z,101394.75
2022-10-11T19:08:50.377Z,101374.44
2022-10-11T19:11:21.612Z,101393.94
2022-10-11T19:13:56.294Z,101368.38
2022-10-11T19:16:24.366Z,101273.75
2022-10-11T19:18:53.810Z,101386.09
2022-10-11T19:21:22.104Z,101360.41
2022-10-11T19:23:50.939Z,101356.03
2022-10-11T19:26:21.149Z,101396.69
2022-10-11T19:28:55.794Z,101364.00
2022-10-11T19:31:23.862Z,101393.28
2022-10-11T19:33:51.767Z,101277.47
2022-10-11T19:36:20.133Z,101364.16
2022-10-11T19:38:49.686Z,101400.50
2022-10-11T19:41:20.208Z,101386.28
2022-10-11T19:43:48.066Z,101393.44
2022-10-11T19:46:38.031Z,101381.88
2022-10-11T19:49:08.513Z,101381.94
2022-10-11T19:51:38.269Z,101357.19
2022-10-11T19:54:09.192Z,101374.94
2022-10-11T19:56:37.547Z,101391.63
2022-10-11T19:59:07.435Z,101403.22
2022-10-11T20:01:37.963Z,101369.63
2022-10-11T20:04:07.655Z,101390.84
2022-10-11T20:06:39.579Z,101391.78
2022-10-11T20:09:28.492Z,101393.56
2022-10-11T20:11:56.110Z,101389.16
2022-10-11T20:14:24.368Z,101386.47
2022-10-11T20:16:54.021Z,101387.34
2022-10-11T20:19:27.705Z,101391.81
2022-10-11T20:21:57.397Z,101346.59
2022-10-11T20:24:27.504Z,101375.81
2022-10-11T20:26:55.342Z,101379.38
2022-10-11T20:29:25.259Z,101386.53
2022-10-11T20:31:56.191Z,101392.81
2022-10-11T20:34:24.124Z,101390.25
2022-10-11T20:36:52.271Z,101378.78
2022-10-11T20:39:20.186Z,101390.25
2022-10-11T20:41:48.034Z,101344.22
2022-10-11T20:44:16.698Z,101353.06
2022-10-11T20:46:44.768Z,101392.91
2022-10-11T20:49:14.163Z,101376.06
2022-10-11T20:51:43.410Z,101392.91
2022-10-11T20:54:11.661Z,101386.69
2022-10-11T20:56:40.433Z,101379.63
2022-10-11T20:59:09.230Z,101399.13
2022-10-11T21:01:39.582Z,101124.78
2022-10-11T21:04:11.038Z,101364.53
2022-10-11T21:06:40.485Z,101378.72
2022-10-11T21:09:10.253Z,101334.38
2022-10-11T21:11:40.904Z,101389.34
2022-10-11T21:14:08.733Z,101360.09
2022-10-11T21:16:36.653Z,101344.16
2022-10-11T21:19:04.943Z,101388.44
2022-10-11T21:21:32.970Z,101383.16
2022-10-11T21:24:03.016Z,101349.53
2022-10-11T21:26:31.878Z,101377.88
2022-10-11T21:29:00.264Z,101389.41
2022-10-11T21:31:33.525Z,101347.75
2022-10-11T21:34:02.339Z,101394.69
2022-10-11T21:36:30.615Z,101377.88
2022-10-11T21:38:58.383Z,101392.06
2022-10-11T21:41:29.841Z,101395.63
2022-10-11T21:43:58.349Z,101195.53
2022-10-11T21:46:42.005Z,101392.06
2022-10-11T21:49:15.696Z,101393.84
2022-10-11T21:51:43.726Z,101386.78
2022-10-11T21:54:11.658Z,101382.34
2022-10-11T21:56:40.850Z,101393.88
2022-10-11T21:59:12.027Z,101399.19
2022-10-11T22:01:40.999Z,101393.84
2022-10-11T22:04:11.008Z,101392.97
2022-10-11T22:06:39.590Z,101395.63
2022-10-11T22:09:08.273Z,101393.00
2022-10-11T22:11:36.516Z,101393.88
2022-10-11T22:14:05.943Z,101371.69
2022-10-11T22:16:35.029Z,101385.00
2022-10-11T22:19:03.152Z,101383.22
2022-10-11T22:21:31.031Z,101367.28
2022-10-11T22:23:58.949Z,101349.56
2022-10-11T22:26:30.615Z,101377.91
2022-10-11T22:28:59.161Z,101381.44
2022-10-11T22:31:29.366Z,101381.47
2022-10-11T22:33:57.438Z,101381.47
2022-10-11T22:36:25.324Z,101383.22
2022-10-11T22:38:54.540Z,101384.97
2022-10-11T22:41:22.413Z,101341.56
2022-10-11T22:43:50.358Z,101346.03
2022-10-11T22:46:18.974Z,101378.78
2022-10-11T22:48:48.245Z,101374.34
2022-10-11T22:51:16.073Z,101384.97
2022-10-11T22:53:44.170Z,101356.63
2022-10-11T22:56:12.027Z,101378.75
2022-10-11T22:58:39.874Z,101384.94
2022-10-11T23:01:09.662Z,101380.53
2022-10-11T23:03:38.269Z,101368.09
2022-10-11T23:06:07.777Z,101359.25
2022-10-11T23:08:35.664Z,101353.94
2022-10-11T23:11:05.011Z,101379.63
2022-10-11T23:13:33.165Z,101381.41
2022-10-11T23:16:01.073Z,101362.75
2022-10-11T23:18:29.102Z,101399.06
2022-10-11T23:21:00.844Z,101375.16
2022-10-11T23:23:30.508Z,101388.47
2022-10-11T23:26:02.969Z,101398.19
2022-10-11T23:28:30.982Z,101399.94
2022-10-11T23:30:59.080Z,101394.63
2022-10-11T23:33:28.686Z,101401.72
2022-10-11T23:35:56.596Z,101381.28
2022-10-11T23:38:24.450Z,101399.00
2022-10-11T23:40:53.749Z,101348.47
2022-10-11T23:43:21.611Z,101394.59
2022-10-11T23:45:49.599Z,101367.09
2022-10-11T23:48:17.348Z,101406.06
2022-10-11T23:50:45.185Z,101360.81
2022-10-11T23:53:14.296Z,101404.25
2022-10-11T23:55:43.486Z,101404.25
2022-10-11T23:58:12.711Z,101406.03
